createdAt,value
2024-02-15T00:00:01.143Z,16.56
2024-02-15T00:02:31.351Z,16.05
2024-02-15T00:04:58.470Z,16.34
2024-02-15T00:07:25.419Z,16.39
2024-02-15T00:09:52.739Z,16.47
2024-02-15T00:12:20.245Z,16.31
2024-02-15T00:14:47.550Z,16.40
2024-02-15T00:17:14.493Z,16.11
2024-02-15T00:19:42.973Z,16.13
2024-02-15T00:22:11.291Z,15.78
2024-02-15T00:24:39.520Z,16.17
2024-02-15T00:27:07.021Z,16.02
2024-02-15T00:29:35.775Z,16.67
2024-02-15T00:32:05.061Z,16.64
2024-02-15T00:34:32.849Z,16.27
2024-02-15T00:37:00.335Z,16.51
2024-02-15T00:39:27.544Z,16.68
2024-02-15T00:41:55.521Z,16.22
2024-02-15T00:44:22.473Z,16.17
2024-02-15T00:46:49.467Z,15.82
2024-02-15T00:49:16.905Z,16.17
2024-02-15T00:51:44.080Z,16.13
2024-02-15T00:54:11.095Z,16.58
2024-02-15T00:56:38.064Z,16.45
2024-02-15T00:59:06.579Z,16.78
2024-02-15T01:01:33.595Z,16.22
2024-02-15T01:04:00.710Z,16.65
2024-02-15T01:06:27.977Z,16.73
2024-02-15T01:08:55.075Z,16.12
2024-02-15T01:11:22.337Z,16.25
2024-02-15T01:13:49.257Z,16.50
2024-02-15T01:16:16.773Z,16.51
2024-02-15T01:18:44.051Z,16.47
2024-02-15T01:21:12.709Z,17.24
2024-02-15T01:23:40.597Z,16.32
2024-02-15T01:26:07.535Z,16.60
2024-02-15T01:28:34.499Z,16.37
2024-02-15T01:31:01.838Z,16.69
2024-02-15T01:33:28.961Z,16.41
2024-02-15T01:35:56.100Z,16.26
2024-02-15T01:38:23.341Z,16.21
2024-02-15T01:40:50.361Z,16.30
2024-02-15T01:43:17.378Z,16.53
2024-02-15T01:45:44.512Z,17.31
2024-02-15T01:48:12.367Z,16.39
2024-02-15T01:50:40.203Z,16.72
2024-02-15T01:53:11.915Z,16.90
2024-02-15T01:55:41.047Z,16.71
2024-02-15T01:58:08.491Z,17.17
2024-02-15T02:00:37.471Z,17.02
2024-02-15T02:03:06.164Z,16.90
2024-02-15T02:05:33.272Z,16.75
2024-02-15T02:08:03.017Z,17.00
2024-02-15T02:10:34.071Z,17.18
2024-02-15T02:13:05.105Z,17.29
2024-02-15T02:15:35.162Z,17.33
2024-02-15T02:18:02.652Z,16.49
2024-02-15T02:20:30.172Z,17.53
2024-02-15T02:23:19.799Z,16.68
2024-02-15T02:25:50.519Z,16.97
2024-02-15T02:28:18.206Z,16.32
2024-02-15T02:30:46.587Z,17.33
2024-02-15T02:33:20.871Z,16.93
2024-02-15T02:35:49.477Z,17.08
2024-02-15T02:38:16.925Z,15.91
2024-02-15T02:40:43.905Z,16.80
2024-02-15T02:43:11.157Z,16.78
2024-02-15T02:45:38.728Z,16.48
2024-02-15T02:48:06.562Z,17.01
2024-02-15T02:50:33.933Z,16.44
2024-02-15T02:53:01.223Z,16.48
2024-02-15T02:55:32.023Z,16.86
2024-02-15T02:57:59.164Z,17.17
2024-02-15T03:00:26.185Z,16.53
2024-02-15T03:02:53.280Z,16.37
2024-02-15T03:05:22.485Z,17.02
2024-02-15T03:07:52.935Z,16.59
2024-02-15T03:10:20.261Z,16.43
2024-02-15T03:12:50.292Z,16.47
2024-02-15T03:15:18.772Z,16.01
2024-02-15T03:17:49.196Z,16.34
2024-02-15T03:20:23.314Z,16.10
2024-02-15T03:22:56.708Z,16.58
2024-02-15T03:25:27.547Z,15.93
2024-02-15T03:27:56.767Z,16.03
2024-02-15T03:30:25.486Z,16.27
2024-02-15T03:32:53.675Z,16.16
2024-02-15T03:35:23.883Z,16.49
2024-02-15T03:37:54.459Z,16.48
2024-02-15T03:40:22.555Z,17.18
2024-02-15T03:42:51.399Z,16.44
2024-02-15T03:45:18.805Z,16.47
2024-02-15T03:47:46.551Z,16.78
2024-02-15T03:50:16.111Z,16.49
2024-02-15T03:52:43.605Z,16.03
2024-02-15T03:55:10.594Z,16.37
2024-02-15T03:57:44.832Z,16.11
2024-02-15T04:00:12.754Z,16.03
2024-02-15T04:02:42.264Z,17.05
2024-02-15T04:05:13.525Z,16.52
2024-02-15T04:07:40.747Z,16.36
2024-02-15T04:10:09.976Z,17.20
2024-02-15T04:12:37.810Z,17.26
2024-02-15T04:15:13.981Z,17.25
2024-02-15T04:17:45.978Z,17.17
2024-02-15T04:20:14.006Z,17.34
2024-02-15T04:22:43.805Z,17.61
2024-02-15T04:25:12.109Z,17.13
2024-02-15T04:27:39.935Z,16.76
2024-02-15T04:30:09.191Z,17.49
2024-02-15T04:32:37.685Z,17.48
2024-02-15T04:35:08.241Z,16.91
2024-02-15T04:37:38.344Z,17.46
2024-02-15T04:40:14.004Z,18.03
2024-02-15T04:42:42.264Z,18.24
2024-02-15T04:45:11.578Z,17.74
2024-02-15T04:47:38.882Z,17.33
2024-02-15T04:50:07.571Z,17.60
2024-02-15T04:52:35.023Z,18.23
2024-02-15T04:55:08.475Z,17.09
2024-02-15T04:57:38.180Z,17.57
2024-02-15T05:00:16.620Z,17.74
2024-02-15T05:02:44.717Z,17.19
2024-02-15T05:05:14.012Z,17.21
2024-02-15T05:07:44.338Z,17.95
2024-02-15T05:10:11.915Z,17.62
2024-02-15T05:12:41.302Z,17.18
2024-02-15T05:15:12.992Z,17.00
2024-02-15T05:17:44.957Z,17.95
2024-02-15T05:20:14.067Z,17.26
2024-02-15T05:22:47.588Z,16.75
2024-02-15T05:25:16.995Z,16.12
2024-02-15T05:27:45.477Z,16.55
2024-02-15T05:30:13.704Z,16.44
2024-02-15T05:32:45.335Z,16.72
2024-02-15T05:35:12.770Z,16.44
2024-02-15T05:37:39.871Z,16.28
2024-02-15T05:40:08.372Z,16.52
2024-02-15T05:42:36.090Z,17.32
2024-02-15T05:45:25.967Z,16.27
2024-02-15T05:47:56.669Z,16.79
2024-02-15T05:50:25.157Z,16.26
2024-02-15T05:52:56.464Z,16.93
2024-02-15T05:55:23.649Z,17.35
2024-02-15T05:57:50.605Z,16.73
2024-02-15T06:00:22.506Z,17.08
2024-02-15T06:02:51.281Z,17.33
2024-02-15T06:05:18.846Z,16.63
2024-02-15T06:07:47.836Z,17.45
2024-02-15T06:10:16.540Z,17.29
2024-02-15T06:12:43.927Z,16.93
2024-02-15T06:15:17.044Z,17.23
2024-02-15T06:17:45.697Z,17.12
2024-02-15T06:20:15.276Z,17.37
2024-02-15T06:22:42.853Z,16.90
2024-02-15T06:25:11.297Z,17.58
2024-02-15T06:27:41.725Z,17.17
2024-02-15T06:30:29.475Z,16.95
2024-02-15T06:33:15.064Z,17.49
2024-02-15T06:36:00.778Z,17.07
2024-02-15T06:38:46.903Z,17.49
2024-02-15T06:41:14.374Z,16.95
2024-02-15T06:43:41.256Z,17.26
2024-02-15T06:46:09.000Z,17.45
2024-02-15T06:48:36.090Z,17.74
2024-02-15T06:51:04.414Z,17.46
2024-02-15T06:53:31.762Z,17.90
2024-02-15T06:55:58.775Z,17.31
2024-02-15T06:58:25.802Z,17.41
2024-02-15T07:00:52.805Z,17.30
2024-02-15T07:03:19.901Z,17.14
2024-02-15T07:05:46.974Z,17.76
2024-02-15T07:08:14.015Z,17.74
2024-02-15T07:10:41.142Z,18.17
2024-02-15T07:13:08.128Z,17.53
2024-02-15T07:15:39.253Z,16.91
2024-02-15T07:18:09.315Z,17.69
2024-02-15T07:20:36.472Z,17.43
2024-02-15T07:23:04.720Z,17.58
2024-02-15T07:25:32.041Z,17.75
2024-02-15T07:27:59.895Z,17.33
2024-02-15T07:30:26.975Z,17.38
2024-02-15T07:32:54.153Z,17.42
2024-02-15T07:35:21.232Z,17.37
2024-02-15T07:37:59.853Z,17.64
2024-02-15T07:40:29.673Z,18.09
2024-02-15T07:42:59.380Z,17.53
2024-02-15T07:45:26.386Z,16.73
2024-02-15T07:47:53.581Z,16.84
2024-02-15T07:50:22.101Z,17.03
2024-02-15T07:52:52.498Z,17.23
2024-02-15T07:55:19.650Z,17.58
2024-02-15T07:57:49.488Z,17.02
2024-02-15T08:00:17.785Z,16.64
2024-02-15T08:02:45.737Z,17.25
2024-02-15T08:05:15.369Z,17.47
2024-02-15T08:07:43.623Z,17.23
2024-02-15T08:10:14.054Z,17.24
2024-02-15T08:12:42.730Z,17.68
2024-02-15T08:15:13.832Z,17.75
2024-02-15T08:17:47.488Z,17.14
2024-02-15T08:20:16.087Z,17.90
2024-02-15T08:22:45.002Z,17.72
2024-02-15T08:25:14.265Z,17.27
2024-02-15T08:27:45.194Z,17.14
2024-02-15T08:30:14.824Z,17.46
2024-02-15T08:32:46.839Z,18.07
2024-02-15T08:35:14.620Z,18.11
2024-02-15T08:37:43.301Z,17.54
2024-02-15T08:40:16.047Z,17.55
2024-02-15T08:42:43.628Z,17.13
2024-02-15T08:45:12.165Z,17.24
2024-02-15T08:47:43.978Z,17.52
2024-02-15T08:50:12.561Z,17.56
2024-02-15T08:52:41.121Z,17.33
2024-02-15T08:55:10.639Z,16.91
2024-02-15T08:57:39.022Z,17.25
2024-02-15T09:00:11.044Z,18.00
2024-02-15T09:02:38.163Z,17.96
2024-02-15T09:05:05.242Z,17.26
2024-02-15T09:07:32.150Z,17.32
2024-02-15T09:09:59.265Z,17.23
2024-02-15T09:12:26.500Z,17.33
2024-02-15T09:14:53.526Z,17.18
2024-02-15T09:17:20.492Z,17.55
2024-02-15T09:19:53.335Z,17.71
2024-02-15T09:22:20.850Z,18.11
2024-02-15T09:24:47.823Z,18.14
2024-02-15T09:27:14.793Z,17.75
2024-02-15T09:29:42.306Z,17.16
2024-02-15T09:32:09.393Z,17.68
2024-02-15T09:34:36.425Z,17.05
2024-02-15T09:37:03.466Z,17.49
2024-02-15T09:39:30.396Z,16.91
2024-02-15T09:42:00.073Z,17.49
2024-02-15T09:44:31.276Z,18.02
2024-02-15T09:47:05.156Z,17.10
2024-02-15T09:49:40.899Z,17.41
2024-02-15T09:52:19.151Z,17.44
2024-02-15T09:54:47.099Z,17.23
2024-02-15T09:57:14.422Z,17.92
2024-02-15T09:59:42.779Z,17.23
2024-02-15T10:02:12.286Z,17.38
2024-02-15T10:04:40.909Z,17.53
2024-02-15T10:07:10.292Z,17.78
2024-02-15T10:09:43.941Z,17.24
2024-02-15T10:12:11.280Z,17.57
2024-02-15T10:14:39.614Z,17.12
2024-02-15T10:17:12.227Z,17.36
2024-02-15T10:19:40.093Z,17.38
2024-02-15T10:22:08.736Z,17.75
2024-02-15T10:24:36.424Z,17.64
2024-02-15T10:27:11.820Z,17.48
2024-02-15T10:29:41.091Z,18.15
2024-02-15T10:32:11.569Z,17.66
2024-02-15T10:34:48.946Z,17.75
2024-02-15T10:37:20.415Z,17.16
2024-02-15T10:39:48.231Z,17.02
2024-02-15T10:42:17.244Z,17.32
2024-02-15T10:44:46.588Z,17.24
2024-02-15T10:47:13.843Z,18.02
2024-02-15T10:49:42.023Z,18.09
2024-02-15T10:52:12.944Z,17.79
2024-02-15T10:54:47.946Z,18.03
2024-02-15T10:57:23.354Z,18.05
2024-02-15T10:59:58.967Z,18.80
2024-02-15T11:02:31.209Z,18.56
2024-02-15T11:05:13.490Z,18.72
2024-02-15T11:07:40.952Z,18.21
2024-02-15T11:10:11.716Z,18.11
2024-02-15T11:12:40.863Z,18.70
2024-02-15T11:15:10.529Z,18.28
2024-02-15T11:17:41.158Z,19.14
2024-02-15T11:20:10.289Z,19.38
2024-02-15T11:22:38.285Z,18.91
2024-02-15T11:25:18.099Z,18.91
2024-02-15T11:27:47.900Z,18.69
2024-02-15T11:30:33.197Z,18.90
2024-02-15T11:33:00.818Z,18.58
2024-02-15T11:35:30.948Z,19.42
2024-02-15T11:38:01.311Z,19.21
2024-02-15T11:40:31.343Z,18.42
2024-02-15T11:43:09.514Z,19.26
2024-02-15T11:45:47.091Z,19.54
2024-02-15T11:48:20.545Z,19.33
2024-02-15T11:50:47.826Z,19.27
2024-02-15T11:53:14.847Z,18.62
2024-02-15T11:55:43.098Z,19.73
2024-02-15T11:58:11.208Z,19.04
2024-02-15T12:00:57.921Z,18.95
2024-02-15T12:03:52.893Z,19.19
2024-02-15T12:06:47.808Z,20.29
2024-02-15T12:09:37.981Z,18.94
2024-02-15T12:12:24.267Z,19.45
2024-02-15T12:15:09.780Z,19.23
2024-02-15T12:17:55.624Z,19.66
2024-02-15T12:20:26.587Z,18.53
2024-02-15T12:22:54.542Z,19.54
2024-02-15T12:25:25.707Z,19.06
2024-02-15T12:28:01.685Z,18.93
2024-02-15T12:30:38.173Z,19.27
2024-02-15T12:33:20.475Z,19.56
2024-02-15T12:35:47.947Z,19.33
2024-02-15T12:38:18.460Z,19.74
2024-02-15T12:40:47.987Z,19.43
2024-02-15T12:43:17.106Z,19.40
2024-02-15T12:45:44.327Z,19.87
2024-02-15T12:48:16.625Z,19.65
2024-02-15T12:50:43.810Z,20.17
2024-02-15T12:53:10.737Z,18.88
2024-02-15T12:55:39.312Z,19.52
2024-02-15T12:58:14.866Z,19.31
2024-02-15T13:00:42.487Z,18.83
2024-02-15T13:03:12.723Z,19.00
2024-02-15T13:05:41.155Z,19.49
2024-02-15T13:08:15.064Z,19.58
2024-02-15T13:10:43.046Z,19.57
2024-02-15T13:13:15.458Z,19.38
2024-02-15T13:15:43.155Z,19.75
2024-02-15T13:18:15.394Z,19.13
2024-02-15T13:20:42.809Z,19.20
2024-02-15T13:23:16.146Z,19.39
2024-02-15T13:25:46.011Z,18.12
2024-02-15T13:28:14.643Z,18.97
2024-02-15T13:30:44.901Z,19.90
2024-02-15T13:33:12.925Z,19.22
2024-02-15T13:35:40.067Z,18.56
2024-02-15T13:38:10.212Z,19.04
2024-02-15T13:40:37.195Z,18.90
2024-02-15T13:43:06.152Z,18.61
2024-02-15T13:45:40.488Z,19.15
2024-02-15T13:48:09.091Z,18.89
2024-02-15T13:50:37.121Z,19.34
2024-02-15T13:53:05.180Z,19.15
2024-02-15T13:55:32.400Z,18.40
2024-02-15T13:58:01.233Z,18.82
2024-02-15T14:00:35.782Z,18.73
2024-02-15T14:03:07.392Z,20.09
2024-02-15T14:05:34.805Z,19.71
2024-02-15T14:08:04.361Z,19.04
2024-02-15T14:10:33.218Z,19.16
2024-02-15T14:13:00.991Z,18.97
2024-02-15T14:15:29.218Z,19.24
2024-02-15T14:17:57.544Z,18.33
2024-02-15T14:20:24.719Z,18.62
2024-02-15T14:22:58.680Z,19.01
2024-02-15T14:25:27.206Z,19.28
2024-02-15T14:27:58.448Z,18.73
2024-02-15T14:30:45.144Z,18.54
2024-02-15T14:33:21.792Z,18.31
2024-02-15T14:35:51.025Z,17.59
2024-02-15T14:38:20.615Z,18.38
2024-02-15T14:40:58.515Z,18.11
2024-02-15T14:43:26.963Z,17.78
2024-02-15T14:45:55.127Z,17.57
2024-02-15T14:48:22.750Z,17.96
2024-02-15T14:50:52.690Z,18.19
2024-02-15T14:53:20.566Z,18.28
2024-02-15T14:55:47.909Z,18.57
2024-02-15T14:58:18.338Z,18.07
2024-02-15T15:00:46.902Z,18.31
2024-02-15T15:03:15.300Z,18.20
2024-02-15T15:06:05.138Z,18.31
2024-02-15T15:08:51.248Z,19.05
2024-02-15T15:11:37.211Z,18.58
2024-02-15T15:14:05.729Z,17.84
2024-02-15T15:16:32.941Z,18.08
2024-02-15T15:19:00.169Z,18.15
2024-02-15T15:21:29.453Z,17.65
2024-02-15T15:23:57.457Z,17.87
2024-02-15T15:26:24.782Z,17.72
2024-02-15T15:28:52.143Z,17.43
2024-02-15T15:31:21.634Z,17.81
2024-02-15T15:33:50.675Z,17.97
2024-02-15T15:36:20.337Z,17.56
2024-02-15T15:38:47.756Z,17.91
2024-02-15T15:41:14.856Z,18.41
2024-02-15T15:43:41.970Z,18.03
2024-02-15T15:46:14.849Z,19.28
2024-02-15T15:48:42.021Z,18.95
2024-02-15T15:51:11.231Z,18.21
2024-02-15T15:53:40.512Z,18.74
2024-02-15T15:56:08.546Z,18.71
2024-02-15T15:58:35.859Z,18.49
2024-02-15T16:01:03.222Z,17.83
2024-02-15T16:03:31.558Z,18.17
2024-02-15T16:05:58.715Z,18.16
2024-02-15T16:08:28.056Z,18.33
2024-02-15T16:10:55.782Z,18.73
2024-02-15T16:13:27.031Z,18.28
2024-02-15T16:15:55.485Z,19.01
2024-02-15T16:18:22.957Z,18.54
2024-02-15T16:20:52.866Z,18.83
2024-02-15T16:23:21.776Z,19.23
2024-02-15T16:25:48.796Z,19.38
2024-02-15T16:28:16.102Z,18.39
2024-02-15T16:30:43.977Z,18.72
2024-02-15T16:33:11.174Z,18.43
2024-02-15T16:35:38.248Z,17.98
2024-02-15T16:38:06.461Z,17.32
2024-02-15T16:40:33.508Z,18.80
2024-02-15T16:43:01.957Z,18.12
2024-02-15T16:45:29.085Z,18.54
2024-02-15T16:48:01.926Z,17.42
2024-02-15T16:50:29.946Z,17.74
2024-02-15T16:52:57.897Z,17.74
2024-02-15T16:55:30.316Z,17.96
2024-02-15T16:58:03.141Z,17.93
2024-02-15T17:00:31.676Z,17.88
2024-02-15T17:02:59.531Z,18.13
2024-02-15T17:05:29.101Z,18.64
2024-02-15T17:07:59.705Z,18.63
2024-02-15T17:10:27.117Z,18.52
2024-02-15T17:12:54.741Z,18.19
2024-02-15T17:15:26.879Z,19.16
2024-02-15T17:17:55.897Z,18.84
2024-02-15T17:20:24.999Z,19.29
2024-02-15T17:22:53.489Z,19.43
2024-02-15T17:25:26.595Z,19.23
2024-02-15T17:27:56.777Z,19.79
2024-02-15T17:30:24.954Z,18.87
2024-02-15T17:32:52.230Z,19.34
2024-02-15T17:35:20.509Z,19.39
2024-02-15T17:37:47.474Z,19.74
2024-02-15T17:40:15.404Z,19.00
2024-02-15T17:42:43.901Z,19.26
2024-02-15T17:45:13.041Z,19.51
2024-02-15T17:47:46.121Z,19.07
2024-02-15T17:50:21.370Z,18.87
2024-02-15T17:52:48.984Z,19.75
2024-02-15T17:55:16.897Z,19.52
2024-02-15T17:57:47.152Z,18.77
2024-02-15T18:00:17.666Z,19.54
2024-02-15T18:02:49.958Z,19.38
2024-02-15T18:05:18.747Z,18.70
2024-02-15T18:07:46.444Z,19.55
2024-02-15T18:10:15.858Z,19.67
2024-02-15T18:12:45.841Z,20.05
2024-02-15T18:15:19.637Z,19.61
2024-02-15T18:17:47.957Z,19.17
2024-02-15T18:20:16.759Z,19.57
2024-02-15T18:22:44.407Z,19.00
2024-02-15T18:25:11.974Z,19.43
2024-02-15T18:27:39.643Z,19.22
2024-02-15T18:30:11.832Z,19.01
2024-02-15T18:32:39.917Z,19.12
2024-02-15T18:35:15.839Z,19.67
2024-02-15T18:37:47.108Z,19.01
2024-02-15T18:40:22.828Z,19.21
2024-02-15T18:42:54.287Z,19.12
2024-02-15T18:45:22.045Z,18.29
2024-02-15T18:47:49.558Z,19.35
2024-02-15T18:50:20.346Z,19.17
2024-02-15T18:52:47.783Z,19.13
2024-02-15T18:55:14.820Z,19.32
2024-02-15T18:57:41.864Z,18.95
2024-02-15T19:00:25.544Z,19.26
2024-02-15T19:03:01.256Z,18.50
2024-02-15T19:05:30.036Z,17.85
2024-02-15T19:07:57.738Z,18.27
2024-02-15T19:10:24.841Z,18.71
2024-02-15T19:12:52.889Z,18.69
2024-02-15T19:15:20.769Z,19.21
2024-02-15T19:17:48.118Z,19.21
2024-02-15T19:20:15.632Z,19.16
2024-02-15T19:22:43.566Z,19.34
2024-02-15T19:25:19.700Z,19.38
2024-02-15T19:27:48.090Z,18.89
2024-02-15T19:30:15.469Z,18.54
2024-02-15T19:32:42.847Z,19.10
2024-02-15T19:35:10.447Z,18.95
2024-02-15T19:37:37.643Z,18.67
2024-02-15T19:40:08.599Z,19.08
2024-02-15T19:42:35.904Z,19.14
2024-02-15T19:45:03.100Z,19.18
2024-02-15T19:47:32.447Z,18.63
2024-02-15T19:49:59.737Z,18.88
2024-02-15T19:52:27.087Z,18.29
2024-02-15T19:54:54.059Z,18.83
2024-02-15T19:57:21.354Z,18.42
2024-02-15T19:59:48.530Z,18.74
2024-02-15T20:02:17.529Z,19.19
2024-02-15T20:04:44.738Z,19.58
2024-02-15T20:07:12.393Z,18.97
2024-02-15T20:09:46.853Z,19.11
2024-02-15T20:12:15.538Z,18.03
2024-02-15T20:14:43.193Z,18.45
2024-02-15T20:17:11.822Z,18.60
2024-02-15T20:19:39.822Z,18.56
2024-02-15T20:22:10.157Z,18.38
2024-02-15T20:24:40.064Z,18.52
2024-02-15T20:27:07.317Z,18.10
2024-02-15T20:29:36.528Z,18.51
2024-02-15T20:32:05.553Z,18.34
2024-02-15T20:34:33.477Z,17.74
2024-02-15T20:37:00.553Z,18.15
2024-02-15T20:39:27.926Z,17.27
2024-02-15T20:41:55.162Z,18.34
2024-02-15T20:44:23.831Z,18.22
2024-02-15T20:46:51.436Z,18.03
2024-02-15T20:49:18.673Z,17.69
2024-02-15T20:51:46.967Z,17.97
2024-02-15T20:54:14.255Z,18.28
2024-02-15T20:56:44.304Z,18.71
2024-02-15T20:59:14.516Z,18.18
2024-02-15T21:01:41.915Z,18.07
2024-02-15T21:04:12.004Z,18.14
2024-02-15T21:06:39.599Z,17.98
2024-02-15T21:09:14.562Z,19.05
2024-02-15T21:11:44.651Z,18.32
2024-02-15T21:14:15.988Z,18.96
2024-02-15T21:16:44.362Z,18.86
2024-02-15T21:19:12.392Z,18.84
2024-02-15T21:21:44.458Z,18.78
2024-02-15T21:24:12.967Z,18.17
2024-02-15T21:26:44.285Z,18.94
2024-02-15T21:29:16.359Z,19.12
2024-02-15T21:31:50.575Z,18.86
2024-02-15T21:34:18.140Z,18.28
2024-02-15T21:36:45.187Z,18.87
2024-02-15T21:39:12.244Z,18.99
2024-02-15T21:41:39.300Z,18.69
2024-02-15T21:44:06.333Z,18.47
2024-02-15T21:46:33.291Z,18.60
2024-02-15T21:49:00.423Z,18.55
2024-02-15T21:51:27.548Z,18.41
2024-02-15T21:53:54.664Z,19.10
2024-02-15T21:56:21.689Z,18.71
2024-02-15T21:58:48.772Z,18.73
2024-02-15T22:01:15.992Z,18.67
2024-02-15T22:03:43.960Z,18.93
2024-02-15T22:06:14.327Z,19.09
2024-02-15T22:08:42.510Z,18.92
2024-02-15T22:11:11.977Z,18.60
2024-02-15T22:13:39.445Z,19.06
2024-02-15T22:16:08.885Z,18.79
2024-02-15T22:18:36.157Z,18.15
2024-02-15T22:21:04.320Z,19.07
2024-02-15T22:23:32.186Z,19.20
2024-02-15T22:25:59.183Z,19.17
2024-02-15T22:28:26.201Z,19.03
2024-02-15T22:30:54.258Z,19.15
2024-02-15T22:33:24.629Z,19.01
2024-02-15T22:35:51.866Z,19.22
2024-02-15T22:38:19.780Z,19.35
2024-02-15T22:40:46.869Z,18.72
2024-02-15T22:43:14.150Z,19.20
2024-02-15T22:45:41.176Z,18.70
2024-02-15T22:48:08.346Z,18.69
2024-02-15T22:50:35.573Z,18.33
2024-02-15T22:53:03.614Z,17.76
2024-02-15T22:55:30.968Z,17.98
2024-02-15T22:57:59.056Z,17.59
2024-02-15T23:00:27.599Z,18.52
2024-02-15T23:02:54.913Z,18.64
2024-02-15T23:05:23.454Z,17.82
2024-02-15T23:07:51.653Z,18.10
2024-02-15T23:10:18.817Z,18.17
2024-02-15T23:12:45.781Z,17.85
2024-02-15T23:15:16.096Z,18.47
2024-02-15T23:17:43.411Z,18.30
2024-02-15T23:20:10.673Z,18.17
2024-02-15T23:22:37.629Z,17.58
2024-02-15T23:25:06.872Z,17.01
2024-02-15T23:27:33.980Z,17.70
2024-02-15T23:30:00.921Z,17.91
2024-02-15T23:32:27.913Z,18.15
2024-02-15T23:34:55.214Z,18.63
2024-02-15T23:37:40.579Z,17.84
2024-02-15T23:40:20.678Z,18.36
2024-02-15T23:42:47.605Z,17.98
2024-02-15T23:45:14.864Z,17.74
2024-02-15T23:47:41.944Z,17.99
2024-02-15T23:50:20.156Z,18.22
2024-02-15T23:52:47.724Z,18.23
2024-02-15T23:55:15.941Z,17.46
2024-02-15T23:57:44.429Z,17.65
